createdAt,value
2023-03-06T00:00:51.060Z,99035.03
2023-03-06T00:03:19.158Z,99038.50
2023-03-06T00:05:46.895Z,99031.47
2023-03-06T00:08:14.496Z,99022.75
2023-03-06T00:10:42.145Z,99021.72
2023-03-06T00:13:12.620Z,99012.38
2023-03-06T00:15:40.231Z,99020.25
2023-03-06T00:18:09.357Z,99018.44
2023-03-06T00:20:37.659Z,99010.50
2023-03-06T00:23:05.169Z,99012.31
2023-03-06T00:25:36.619Z,99004.13
2023-03-06T00:28:04.102Z,98997.19
2023-03-06T00:30:32.260Z,98998.91
2023-03-06T00:32:59.732Z,98992.31
2023-03-06T00:35:28.800Z,98991.50
2023-03-06T00:37:57.714Z,98989.66
2023-03-06T00:40:25.231Z,98984.38
2023-03-06T00:42:52.681Z,98984.38
2023-03-06T00:45:20.195Z,98982.44
2023-03-06T00:47:47.688Z,98971.84
2023-03-06T00:50:15.209Z,98972.78
2023-03-06T00:52:44.086Z,98967.44
2023-03-06T00:55:11.846Z,98963.59
2023-03-06T00:57:39.319Z,98962.50
2023-03-06T01:00:08.802Z,98958.78
2023-03-06T01:02:36.322Z,98958.38
2023-03-06T01:05:03.892Z,98959.84
2023-03-06T01:07:33.879Z,98950.09
2023-03-06T01:10:02.813Z,98947.97
2023-03-06T01:12:30.308Z,98949.22
2023-03-06T01:14:57.810Z,98950.09
2023-03-06T01:17:25.342Z,98950.09
2023-03-06T01:19:52.830Z,98947.25
2023-03-06T01:22:20.343Z,98945.66
2023-03-06T01:24:47.845Z,98951.16
2023-03-06T01:27:16.651Z,98945.38
2023-03-06T01:29:44.091Z,98938.25
2023-03-06T01:32:11.696Z,98937.88
2023-03-06T01:34:39.223Z,98935.78
2023-03-06T01:37:06.750Z,98934.59
2023-03-06T01:39:34.200Z,98930.91
2023-03-06T01:42:01.653Z,98932.81
2023-03-06T01:44:30.548Z,98928.84
2023-03-06T01:46:57.990Z,98929.59
2023-03-06T01:49:29.542Z,98925.75
2023-03-06T01:52:02.480Z,98925.03
2023-03-06T01:54:33.785Z,98918.13
2023-03-06T01:57:05.099Z,98923.63
2023-03-06T01:59:36.597Z,98925.84
2023-03-06T02:02:06.865Z,98914.47
2023-03-06T02:04:35.164Z,98918.28
2023-03-06T02:07:05.098Z,98908.38
2023-03-06T02:09:34.599Z,98904.56
2023-03-06T02:12:02.615Z,98901.03
2023-03-06T02:14:31.025Z,98902.84
2023-03-06T02:16:59.925Z,98898.28
2023-03-06T02:19:37.758Z,98884.28
2023-03-06T02:22:05.325Z,98889.81
2023-03-06T02:24:41.141Z,98883.41
2023-03-06T02:27:14.119Z,98886.72
2023-03-06T02:29:41.998Z,98881.03
2023-03-06T02:32:10.435Z,98877.44
2023-03-06T02:34:52.110Z,98876.38
2023-03-06T02:37:20.307Z,98880.22
2023-03-06T02:39:50.723Z,98872.84
2023-03-06T02:42:21.620Z,98878.06
2023-03-06T02:44:49.968Z,98872.84
2023-03-06T02:47:17.487Z,98863.97
2023-03-06T02:49:44.917Z,98865.63
2023-03-06T02:52:12.428Z,98860.03
2023-03-06T02:54:39.978Z,98863.28
2023-03-06T02:57:07.521Z,98854.19
2023-03-06T02:59:36.334Z,98858.38
2023-03-06T03:02:03.788Z,98860.50
2023-03-06T03:04:31.382Z,98857.00
2023-03-06T03:06:58.871Z,98858.56
2023-03-06T03:09:26.415Z,98843.25
2023-03-06T03:11:53.930Z,98843.56
2023-03-06T03:14:21.446Z,98842.16
2023-03-06T03:16:50.243Z,98843.78
2023-03-06T03:19:17.790Z,98855.81
2023-03-06T03:21:45.260Z,98844.84
2023-03-06T03:24:12.784Z,98848.06
2023-03-06T03:26:40.344Z,98839.81
2023-03-06T03:29:08.002Z,98835.03
2023-03-06T03:31:35.493Z,98836.66
2023-03-06T03:34:04.704Z,98837.31
2023-03-06T03:36:32.198Z,98838.91
2023-03-06T03:39:00.148Z,98837.97
2023-03-06T03:41:27.645Z,98831.88
2023-03-06T03:43:55.171Z,98828.22
2023-03-06T03:46:22.795Z,98826.81
2023-03-06T03:48:50.297Z,98822.91
2023-03-06T03:51:19.195Z,98820.38
2023-03-06T03:53:46.834Z,98821.81
2023-03-06T03:56:14.608Z,98819.16
2023-03-06T03:58:42.170Z,98811.38
2023-03-06T04:01:09.673Z,98807.13
2023-03-06T04:03:37.150Z,98804.13
2023-03-06T04:06:04.877Z,98814.31
2023-03-06T04:08:33.903Z,98816.78
2023-03-06T04:11:01.463Z,98811.28
2023-03-06T04:13:28.964Z,98812.13
2023-03-06T04:15:57.165Z,98820.78
2023-03-06T04:18:24.877Z,98810.66
2023-03-06T04:20:52.386Z,98810.16
2023-03-06T04:23:20.408Z,98802.44
2023-03-06T04:25:49.212Z,98791.69
2023-03-06T04:28:17.621Z,98803.72
2023-03-06T04:30:45.076Z,98796.03
2023-03-06T04:33:12.626Z,98797.63
2023-03-06T04:35:40.177Z,98797.53
2023-03-06T04:38:07.656Z,98785.50
2023-03-06T04:40:36.787Z,98782.28
2023-03-06T04:43:06.186Z,98775.69
2023-03-06T04:45:35.266Z,98777.91
2023-03-06T04:48:03.206Z,98769.63
2023-03-06T04:50:32.353Z,98770.69
2023-03-06T04:53:01.230Z,98764.34
2023-03-06T04:55:29.265Z,98759.06
2023-03-06T04:57:58.798Z,98761.53
2023-03-06T05:00:31.246Z,98764.34
2023-03-06T05:03:00.239Z,98761.13
2023-03-06T05:05:28.688Z,98760.97
2023-03-06T05:07:56.571Z,98761.53
2023-03-06T05:10:24.107Z,98766.41
2023-03-06T05:12:51.668Z,98765.34
2023-03-06T05:15:19.423Z,98757.78
2023-03-06T05:17:48.411Z,98755.44
2023-03-06T05:20:16.793Z,98762.34
2023-03-06T05:22:44.351Z,98760.19
2023-03-06T05:25:11.874Z,98760.19
2023-03-06T05:27:39.557Z,98759.03
2023-03-06T05:30:08.348Z,98767.03
2023-03-06T05:32:36.122Z,98761.13
2023-03-06T05:35:05.962Z,98760.88
2023-03-06T05:37:34.997Z,98759.00
2023-03-06T05:40:06.543Z,98761.25
2023-03-06T05:42:33.997Z,98760.00
2023-03-06T05:45:04.406Z,98759.81
2023-03-06T05:47:32.423Z,98753.22
2023-03-06T05:50:00.056Z,98754.78
2023-03-06T05:52:28.906Z,98750.56
2023-03-06T05:54:56.360Z,98756.50
2023-03-06T05:57:25.064Z,98750.56
2023-03-06T05:59:52.955Z,98743.94
2023-03-06T06:02:20.866Z,98741.78
2023-03-06T06:04:48.613Z,98744.22
2023-03-06T06:07:17.390Z,98739.13
2023-03-06T06:09:46.268Z,98746.31
2023-03-06T06:12:14.713Z,98749.88
2023-03-06T06:14:42.214Z,98743.56
2023-03-06T06:17:10.318Z,98740.84
2023-03-06T06:19:37.799Z,98754.56
2023-03-06T06:22:05.742Z,98739.72
2023-03-06T06:24:33.601Z,98744.75
2023-03-06T06:27:03.957Z,98743.09
2023-03-06T06:29:32.595Z,98752.25
2023-03-06T06:32:00.629Z,98745.41
2023-03-06T06:34:29.023Z,98742.56
2023-03-06T06:36:56.474Z,98745.78
2023-03-06T06:39:24.522Z,98743.16
2023-03-06T06:42:09.527Z,98738.78
2023-03-06T06:44:41.530Z,98740.47
2023-03-06T06:47:22.351Z,98745.78
2023-03-06T06:49:51.256Z,98738.78
2023-03-06T06:52:19.453Z,98734.25
2023-03-06T06:54:46.964Z,98736.97
2023-03-06T06:57:14.660Z,98732.22
2023-03-06T06:59:46.105Z,98727.28
2023-03-06T07:02:14.596Z,98727.28
2023-03-06T07:05:00.278Z,98729.44
2023-03-06T07:07:31.830Z,98734.66
2023-03-06T07:09:59.363Z,98741.50
2023-03-06T07:12:26.874Z,98741.22
2023-03-06T07:14:57.710Z,98737.22
2023-03-06T07:17:25.186Z,98730.50
2023-03-06T07:19:52.666Z,98736.31
2023-03-06T07:22:24.284Z,98742.97
2023-03-06T07:24:56.877Z,98736.78
2023-03-06T07:27:26.058Z,98748.88
2023-03-06T07:29:57.027Z,98743.16
2023-03-06T07:32:30.704Z,98751.47
2023-03-06T07:35:13.721Z,98749.63
2023-03-06T07:37:48.561Z,98752.16
2023-03-06T07:40:16.118Z,98740.78
2023-03-06T07:42:43.825Z,98744.59
2023-03-06T07:45:13.443Z,98758.34
2023-03-06T07:47:41.399Z,98742.91
2023-03-06T07:50:09.809Z,98750.03
2023-03-06T07:52:37.510Z,98745.28
2023-03-06T07:55:05.656Z,98752.66
2023-03-06T07:57:33.235Z,98760.69
2023-03-06T08:00:00.781Z,98751.69
2023-03-06T08:02:29.616Z,98754.53
2023-03-06T08:04:57.861Z,98749.03
2023-03-06T08:07:25.629Z,98757.66
2023-03-06T08:09:53.129Z,98749.63
2023-03-06T08:12:20.600Z,98738.53
2023-03-06T08:14:48.089Z,98742.38
2023-03-06T08:17:15.737Z,98740.97
2023-03-06T08:19:44.546Z,98739.06
2023-03-06T08:22:13.855Z,98741.44
2023-03-06T08:24:41.353Z,98736.22
2023-03-06T08:27:08.779Z,98739.13
2023-03-06T08:29:36.240Z,98743.31
2023-03-06T08:32:03.734Z,98738.72
2023-03-06T08:34:31.713Z,98738.34
2023-03-06T08:37:00.555Z,98738.78
2023-03-06T08:39:28.141Z,98740.00
2023-03-06T08:41:55.615Z,98741.16
2023-03-06T08:44:23.188Z,98737.22
2023-03-06T08:46:50.658Z,98741.84
2023-03-06T08:49:18.139Z,98737.88
2023-03-06T08:51:45.562Z,98741.25
2023-03-06T08:54:14.667Z,98736.09
2023-03-06T08:56:42.209Z,98733.22
2023-03-06T08:59:11.948Z,98736.41
2023-03-06T09:01:40.196Z,98735.31
2023-03-06T09:04:09.771Z,98728.72
2023-03-06T09:06:40.511Z,98733.28
2023-03-06T09:09:08.859Z,98734.81
2023-03-06T09:11:37.831Z,98734.31
2023-03-06T09:14:05.802Z,98743.38
2023-03-06T09:16:33.392Z,98732.00
2023-03-06T09:19:00.885Z,98739.75
2023-03-06T09:21:28.744Z,98737.88
2023-03-06T09:23:56.390Z,98742.91
2023-03-06T09:26:32.840Z,98736.00
2023-03-06T09:29:08.906Z,98742.91
2023-03-06T09:31:36.334Z,98745.63
2023-03-06T09:34:03.877Z,98743.53
2023-03-06T09:36:31.338Z,98741.91
2023-03-06T09:38:58.853Z,98747.34
2023-03-06T09:41:30.545Z,98742.88
2023-03-06T09:44:04.931Z,98739.53
2023-03-06T09:46:47.085Z,98740.97
2023-03-06T09:49:38.010Z,98739.78
2023-03-06T09:52:18.684Z,98739.94
2023-03-06T09:54:47.895Z,98738.53
2023-03-06T09:57:22.670Z,98738.78
2023-03-06T09:59:53.822Z,98728.72
2023-03-06T10:02:29.879Z,98741.53
2023-03-06T10:05:01.676Z,98741.16
2023-03-06T10:07:39.916Z,98745.91
2023-03-06T10:10:12.699Z,98748.19
2023-03-06T10:12:45.125Z,98744.28
2023-03-06T10:15:17.180Z,98746.78
2023-03-06T10:17:46.309Z,98751.09
2023-03-06T10:20:22.360Z,98747.13
2023-03-06T10:23:33.248Z,98742.97
2023-03-06T10:26:03.271Z,98742.16
2023-03-06T10:28:35.608Z,98740.34
2023-03-06T10:31:10.578Z,98744.75
2023-03-06T10:33:55.504Z,98754.00
2023-03-06T10:36:26.916Z,98748.19
2023-03-06T10:38:56.588Z,98756.69
2023-03-06T10:41:28.377Z,98753.44
2023-03-06T10:44:19.499Z,98750.47
2023-03-06T10:46:48.893Z,98744.91
2023-03-06T10:49:33.170Z,98744.72
2023-03-06T10:52:03.528Z,98749.44
2023-03-06T10:54:33.302Z,98742.84
2023-03-06T10:57:19.750Z,98746.06
2023-03-06T10:59:55.667Z,98746.09
2023-03-06T11:02:28.933Z,98754.06
2023-03-06T11:05:00.185Z,98754.28
2023-03-06T11:07:30.067Z,98747.19
2023-03-06T11:10:12.903Z,98751.97
2023-03-06T11:12:42.428Z,98742.56
2023-03-06T11:15:18.343Z,98752.59
2023-03-06T11:17:55.174Z,98751.97
2023-03-06T11:20:26.361Z,98754.09
2023-03-06T11:22:57.920Z,98759.03
2023-03-06T11:25:31.300Z,98761.22
2023-03-06T11:28:03.784Z,98759.22
2023-03-06T11:30:38.910Z,98757.44
2023-03-06T11:33:18.156Z,98750.75
2023-03-06T11:35:57.855Z,98754.50
2023-03-06T11:38:34.840Z,98750.13
2023-03-06T11:41:06.742Z,98749.22
2023-03-06T11:43:42.163Z,98750.63
2023-03-06T11:46:14.999Z,98747.44
2023-03-06T11:48:47.552Z,98748.69
2023-03-06T11:51:20.316Z,98743.34
2023-03-06T11:53:50.821Z,98745.16
2023-03-06T11:56:32.038Z,98739.84
2023-03-06T11:59:14.192Z,98733.97
2023-03-06T12:01:47.679Z,98736.06
2023-03-06T12:04:38.822Z,98724.25
2023-03-06T12:07:20.379Z,98731.69
2023-03-06T12:09:55.345Z,98726.94
2023-03-06T12:12:38.586Z,98724.81
2023-03-06T12:15:19.991Z,98721.41
2023-03-06T12:17:57.400Z,98721.66
2023-03-06T12:20:40.919Z,98721.56
2023-03-06T12:23:21.958Z,98709.88
2023-03-06T12:25:54.868Z,98710.38
2023-03-06T12:28:46.296Z,98710.84
2023-03-06T12:31:24.951Z,98707.66
2023-03-06T12:34:02.528Z,98714.06
2023-03-06T12:36:39.766Z,98706.66
2023-03-06T12:39:11.310Z,98708.84
2023-03-06T12:41:46.334Z,98707.22
2023-03-06T12:44:28.163Z,98701.59
2023-03-06T12:46:59.399Z,98690.66
2023-03-06T12:49:32.387Z,98690.66
2023-03-06T12:52:02.114Z,98693.50
2023-03-06T12:54:34.396Z,98689.66
2023-03-06T12:57:02.060Z,98681.19
2023-03-06T12:59:44.155Z,98667.78
2023-03-06T13:02:30.037Z,98676.47
2023-03-06T13:05:11.713Z,98670.41
2023-03-06T13:07:53.532Z,98669.31
2023-03-06T13:10:27.803Z,98662.19
2023-03-06T13:12:57.275Z,98660.75
2023-03-06T13:15:42.516Z,98658.22
2023-03-06T13:18:47.502Z,98650.00
2023-03-06T13:21:52.754Z,98668.09
2023-03-06T13:24:23.013Z,98664.00
2023-03-06T13:27:02.978Z,98659.03
2023-03-06T13:29:54.280Z,98657.84
2023-03-06T13:32:31.486Z,98658.00
2023-03-06T13:34:58.996Z,98665.53
2023-03-06T13:37:53.577Z,98657.66
2023-03-06T13:40:33.187Z,98656.53
2023-03-06T13:43:19.097Z,98655.69
2023-03-06T13:45:49.003Z,98644.84
2023-03-06T13:48:43.782Z,98651.66
2023-03-06T13:51:23.001Z,98639.88
2023-03-06T13:54:17.780Z,98644.16
2023-03-06T13:57:05.850Z,98647.81
2023-03-06T14:00:08.287Z,98641.59
2023-03-06T14:02:54.486Z,98637.47
2023-03-06T14:05:22.674Z,98641.38
2023-03-06T14:08:03.309Z,98639.78
2023-03-06T14:10:34.729Z,98634.56
2023-03-06T14:13:04.869Z,98637.28
2023-03-06T14:15:45.773Z,98635.16
2023-03-06T14:18:20.474Z,98633.63
2023-03-06T14:20:52.844Z,98629.63
2023-03-06T14:23:28.572Z,98630.31
2023-03-06T14:26:02.124Z,98622.16
2023-03-06T14:28:31.376Z,98627.72
2023-03-06T14:31:01.960Z,98620.38
2023-03-06T14:33:37.727Z,98619.16
2023-03-06T14:36:10.482Z,98622.59
2023-03-06T14:38:45.032Z,98613.88
2023-03-06T14:41:14.220Z,98615.25
2023-03-06T14:43:41.755Z,98606.84
2023-03-06T14:46:20.633Z,98613.53
2023-03-06T14:48:50.073Z,98606.50
2023-03-06T14:51:20.906Z,98608.81
2023-03-06T14:53:50.266Z,98605.31
2023-03-06T14:56:19.985Z,98603.34
2023-03-06T14:58:53.406Z,98610.13
2023-03-06T15:01:30.011Z,98606.78
2023-03-06T15:03:59.920Z,98606.72
2023-03-06T15:06:33.155Z,98607.69
2023-03-06T15:09:05.848Z,98607.84
2023-03-06T15:11:52.735Z,98595.72
2023-03-06T15:14:22.333Z,98607.28
2023-03-06T15:16:51.161Z,98598.59
2023-03-06T15:19:20.311Z,98604.16
2023-03-06T15:21:49.572Z,98603.91
2023-03-06T15:24:35.568Z,98590.78
2023-03-06T15:27:04.867Z,98598.16
2023-03-06T15:29:32.885Z,98584.81
2023-03-06T15:32:32.189Z,98587.31
2023-03-06T15:35:29.379Z,98587.47
2023-03-06T15:37:57.616Z,98584.41
2023-03-06T15:40:27.304Z,98582.22
2023-03-06T15:42:55.104Z,98588.38
2023-03-06T15:45:24.459Z,98576.75
2023-03-06T15:47:55.583Z,98582.59
2023-03-06T15:50:24.483Z,98582.75
2023-03-06T15:52:52.538Z,98572.31
2023-03-06T15:55:23.342Z,98574.00
2023-03-06T15:57:52.828Z,98579.25
2023-03-06T16:00:28.307Z,98572.31
2023-03-06T16:02:58.693Z,98567.28
2023-03-06T16:05:27.892Z,98574.88
2023-03-06T16:07:55.723Z,98562.31
2023-03-06T16:10:25.339Z,98562.06
2023-03-06T16:12:56.534Z,98563.94
2023-03-06T16:15:28.732Z,98564.28
2023-03-06T16:17:57.887Z,98569.84
2023-03-06T16:20:27.329Z,98564.97
2023-03-06T16:22:55.183Z,98570.16
2023-03-06T16:25:23.787Z,98567.63
2023-03-06T16:27:55.565Z,98567.78
2023-03-06T16:30:24.221Z,98563.44
2023-03-06T16:32:51.985Z,98552.56
2023-03-06T16:35:20.902Z,98560.09
2023-03-06T16:37:48.500Z,98559.41
2023-03-06T16:40:22.027Z,98550.53
2023-03-06T16:42:49.920Z,98556.56
2023-03-06T16:45:19.300Z,98559.25
2023-03-06T16:47:48.000Z,98550.63
2023-03-06T16:50:26.460Z,98552.28
2023-03-06T16:52:55.526Z,98552.03
2023-03-06T16:55:23.865Z,98551.25
2023-03-06T16:57:51.777Z,98545.59
2023-03-06T17:00:21.189Z,98549.56
2023-03-06T17:02:49.465Z,98555.25
2023-03-06T17:05:17.199Z,98551.84
2023-03-06T17:07:46.084Z,98557.03
2023-03-06T17:10:16.593Z,98553.78
2023-03-06T17:12:44.682Z,98556.34
2023-03-06T17:15:12.937Z,98552.16
2023-03-06T17:17:40.468Z,98549.84
2023-03-06T17:20:09.364Z,98542.94
2023-03-06T17:22:38.596Z,98550.22
2023-03-06T17:25:09.349Z,98549.66
2023-03-06T17:27:37.470Z,98546.78
2023-03-06T17:30:06.337Z,98549.25
2023-03-06T17:32:34.007Z,98550.03
2023-03-06T17:35:01.512Z,98547.81
2023-03-06T17:37:29.309Z,98541.97
2023-03-06T17:39:56.784Z,98541.03
2023-03-06T17:42:25.543Z,98543.53
2023-03-06T17:44:53.269Z,98541.13
2023-03-06T17:47:20.747Z,98540.50
2023-03-06T17:49:48.224Z,98538.94
2023-03-06T17:52:15.720Z,98535.47
2023-03-06T17:54:43.239Z,98530.84
2023-03-06T17:57:10.717Z,98537.88
2023-03-06T17:59:39.559Z,98535.31
2023-03-06T18:02:07.543Z,98538.56
2023-03-06T18:04:35.078Z,98536.38
2023-03-06T18:07:02.604Z,98538.38
2023-03-06T18:09:30.256Z,98533.63
2023-03-06T18:11:57.731Z,98531.59
2023-03-06T18:14:25.263Z,98520.50
2023-03-06T18:16:54.088Z,98528.72
2023-03-06T18:19:21.682Z,98533.94
2023-03-06T18:21:49.139Z,98520.41
2023-03-06T18:24:16.645Z,98518.50
2023-03-06T18:26:44.169Z,98518.38
2023-03-06T18:29:11.647Z,98519.63
2023-03-06T18:31:40.753Z,98511.81
2023-03-06T18:34:11.873Z,98516.06
2023-03-06T18:36:42.241Z,98516.34
2023-03-06T18:39:12.647Z,98503.13
2023-03-06T18:41:40.306Z,98510.41
2023-03-06T18:44:08.185Z,98505.47
2023-03-06T18:46:38.318Z,98497.03
2023-03-06T18:49:06.515Z,98486.38
2023-03-06T18:51:35.915Z,98490.25
2023-03-06T18:54:05.770Z,98487.75
2023-03-06T18:56:33.998Z,98482.16
2023-03-06T18:59:03.348Z,98482.00
2023-03-06T19:01:31.377Z,98479.53
2023-03-06T19:04:01.046Z,98474.28
2023-03-06T19:06:28.983Z,98472.84
2023-03-06T19:08:59.372Z,98473.84
2023-03-06T19:11:27.757Z,98468.56
2023-03-06T19:13:55.481Z,98470.50
2023-03-06T19:16:25.253Z,98469.09
2023-03-06T19:18:55.055Z,98464.50
2023-03-06T19:21:24.001Z,98460.06
2023-03-06T19:23:52.009Z,98464.28
2023-03-06T19:26:21.373Z,98460.06
2023-03-06T19:28:49.593Z,98459.72
2023-03-06T19:31:20.028Z,98464.72
2023-03-06T19:33:48.774Z,98454.66
2023-03-06T19:36:18.315Z,98451.00
2023-03-06T19:38:50.206Z,98454.06
2023-03-06T19:41:17.768Z,98442.03
2023-03-06T19:43:52.034Z,98442.09
2023-03-06T19:46:20.129Z,98441.44
2023-03-06T19:48:48.255Z,98448.94
2023-03-06T19:51:15.834Z,98448.03
2023-03-06T19:53:43.289Z,98437.63
2023-03-06T19:56:14.717Z,98434.22
2023-03-06T19:58:42.518Z,98443.09
2023-03-06T20:01:13.777Z,98432.38
2023-03-06T20:03:41.788Z,98416.75
2023-03-06T20:06:13.778Z,98421.19
2023-03-06T20:08:41.275Z,98416.34
2023-03-06T20:11:16.677Z,98414.34
2023-03-06T20:13:47.581Z,98406.47
2023-03-06T20:16:17.264Z,98406.88
2023-03-06T20:18:45.366Z,98402.22
2023-03-06T20:21:13.038Z,98394.59
2023-03-06T20:23:40.774Z,98392.53
2023-03-06T20:26:11.786Z,98395.91
2023-03-06T20:28:39.980Z,98389.63
2023-03-06T20:31:08.907Z,98379.06
2023-03-06T20:33:37.822Z,98376.72
2023-03-06T20:36:06.195Z,98382.50
2023-03-06T20:38:33.680Z,98370.34
2023-03-06T20:41:01.181Z,98365.78
2023-03-06T20:43:28.624Z,98370.44
2023-03-06T20:45:57.837Z,98374.97
2023-03-06T20:48:25.477Z,98367.38
2023-03-06T20:51:01.928Z,98356.28
2023-03-06T20:53:29.475Z,98358.84
2023-03-06T20:55:57.285Z,98363.81
2023-03-06T20:58:28.327Z,98355.09
2023-03-06T21:00:55.787Z,98361.00
2023-03-06T21:03:24.026Z,98341.53
2023-03-06T21:05:51.541Z,98338.50
2023-03-06T21:08:20.358Z,98348.69
2023-03-06T21:10:48.033Z,98341.50
2023-03-06T21:13:16.107Z,98343.28
2023-03-06T21:15:45.525Z,98339.25
2023-03-06T21:18:13.440Z,98336.06
2023-03-06T21:20:42.317Z,98322.47
2023-03-06T21:23:10.039Z,98324.63
2023-03-06T21:25:38.872Z,98321.06
2023-03-06T21:28:06.371Z,98317.31
2023-03-06T21:30:35.176Z,98310.81
2023-03-06T21:33:03.772Z,98312.75
2023-03-06T21:35:32.404Z,98298.13
2023-03-06T21:37:59.891Z,98294.91
2023-03-06T21:40:28.154Z,98291.09
2023-03-06T21:42:56.978Z,98281.91
2023-03-06T21:45:26.433Z,98275.66
2023-03-06T21:47:55.059Z,98284.19
2023-03-06T21:50:23.581Z,98271.47
2023-03-06T21:52:51.221Z,98271.09
2023-03-06T21:55:19.049Z,98269.53
2023-03-06T21:57:51.224Z,98265.09
2023-03-06T22:00:23.038Z,98260.69
2023-03-06T22:02:51.027Z,98265.47
2023-03-06T22:05:18.558Z,98260.59
2023-03-06T22:07:46.205Z,98250.66
2023-03-06T22:10:14.202Z,98236.28
2023-03-06T22:12:41.676Z,98244.19
2023-03-06T22:15:10.499Z,98241.00
2023-03-06T22:17:39.689Z,98224.47
2023-03-06T22:20:07.876Z,98221.53
2023-03-06T22:22:35.303Z,98225.03
2023-03-06T22:25:03.150Z,98213.31
2023-03-06T22:27:30.741Z,98218.69
2023-03-06T22:29:58.219Z,98207.00
2023-03-06T22:32:25.792Z,98207.16
2023-03-06T22:34:54.691Z,98206.16
2023-03-06T22:37:22.140Z,98201.66
2023-03-06T22:39:49.586Z,98196.63
2023-03-06T22:42:17.137Z,98195.47
2023-03-06T22:44:44.854Z,98180.47
2023-03-06T22:47:12.378Z,98170.50
2023-03-06T22:49:40.104Z,98169.88
2023-03-06T22:52:09.088Z,98173.72
2023-03-06T22:54:36.880Z,98173.28
2023-03-06T22:57:04.448Z,98163.00
2023-03-06T22:59:32.030Z,98158.16
2023-03-06T23:01:59.465Z,98156.78
2023-03-06T23:04:26.987Z,98157.41
2023-03-06T23:06:54.484Z,98155.50
2023-03-06T23:09:25.054Z,98143.81
2023-03-06T23:11:52.788Z,98155.00
2023-03-06T23:14:20.700Z,98147.22
2023-03-06T23:16:48.210Z,98134.72
2023-03-06T23:19:15.807Z,98133.00
2023-03-06T23:21:43.345Z,98139.44
2023-03-06T23:24:10.839Z,98142.75
2023-03-06T23:26:40.584Z,98132.19
2023-03-06T23:29:08.092Z,98126.28
2023-03-06T23:31:35.562Z,98136.47
2023-03-06T23:34:04.018Z,98127.63
2023-03-06T23:36:32.038Z,98128.41
2023-03-06T23:38:59.525Z,98127.69
2023-03-06T23:41:27.214Z,98124.34
2023-03-06T23:43:56.022Z,98118.78
2023-03-06T23:46:23.820Z,98125.84
2023-03-06T23:48:51.633Z,98122.53
2023-03-06T23:51:21.336Z,98114.31
2023-03-06T23:53:55.084Z,98122.22
2023-03-06T23:56:22.919Z,98109.66
2023-03-06T23:58:50.410Z,98120.22
